Aérodrome :
LOGIN :

S'inscrire | Disclaimer

   EN    FR    IT 

 










Légende :    VFR   VFR Marginal   IFR   IFR Intensif   IFR Très Intensif
Visi : 
Plafond : 
>= 8 km
>= 3000ft
5 à 8 km
1000 à 3000 ft
1500m à 5 km
500 à 1000 ft
800 à 1500m
200 à 500 ft
< 800m
< 200 ft
Symboles :   Orages  Brouillard  Fortes neiges  Fortes précipitations  Vent > 20 kt
SIGMETs :   Divers  Orages  Givrage  Turbulence  Onde Orograph.  Cendres Volcan.






- Altitude de l'aérodrome : 204 ft
- Code IATA : AGF


LFBA - Agen

DERNIER METAR :
  • 071330Z AUTO 11006KT 4300 BR FEW014 SCT022 OVC038 10/10 Q1022 TEMPO BKN010

METARs EXPIRÉS :
  • 071300Z AUTO 11006KT 6000 BKN013 OVC031 09/09 Q1023 TEMPO 4000 -RA
  • 071230Z AUTO 10006KT 5000 BR FEW015 OVC035 09/09 Q1023 TEMPO BKN010
  • 071200Z AUTO 12006KT 4900 BR BKN004 BKN008 OVC033 09/08 Q1023 TEMPO BKN010
  • 071130Z AUTO 11006KT 4200 BR BKN004 OVC008 08/08 Q1024 TEMPO BKN010
  • 071100Z AUTO 11005KT 3200 BR OVC003 08/08 Q1024 TEMPO BKN010

TAF TAF LFBA
Valide du 07 à 12h jusqu'au 07 à 21h UTC


071100Z 0712/0721 12005KT 4000 BR BKN003
BECMG 0713/0714 9999 BKN012
PROB30
TEMPO 0713/0716 4000 -RA BKN010
BECMG 0716/0718 BKN040
PROB40
TEMPO 0718/0721 BKN012



MET'MAP, la Météo Aéronautique d'un coup d'oeil ! - Copyright ORBIFLY Décembre 2007 - Disclaimer

ORBIFLY MET'MAP TEAM :

Programmation & Développement : Alexandra Zaïnal
Sur une idée originale de : Baudouin d'Aumeries
Assistance à la programmation : Marc-Olivier Méhu
Soutien technique & logistique : Manuel Goepfert

Contact : metmap@orbifly.com




SOURCES & CREDITS :

   NOAA